createdAt,value
2022-10-23T00:02:19.503Z,6.90
2022-10-23T00:12:19.532Z,6.60
2022-10-23T00:22:19.468Z,6.10
2022-10-23T00:32:19.503Z,7.80
2022-10-23T00:42:19.472Z,6.50
2022-10-23T00:52:19.459Z,6.20
2022-10-23T01:02:19.583Z,6.30
2022-10-23T01:12:19.459Z,6.30
2022-10-23T01:22:19.527Z,7.80
2022-10-23T01:32:19.509Z,12.50
2022-10-23T01:42:19.484Z,10.40
2022-10-23T01:52:19.498Z,9.70
2022-10-23T02:02:19.525Z,9.40
2022-10-23T02:12:19.507Z,9.60
2022-10-23T02:22:19.528Z,9.00
2022-10-23T02:32:19.592Z,8.30
2022-10-23T02:42:19.507Z,8.10
2022-10-23T02:52:19.523Z,9.50
2022-10-23T03:02:19.628Z,8.20
2022-10-23T03:12:19.528Z,7.40
2022-10-23T03:22:19.532Z,8.20
2022-10-23T03:32:19.589Z,7.70
2022-10-23T03:42:19.527Z,6.80
2022-10-23T03:52:19.591Z,7.60
2022-10-23T04:02:19.592Z,5.70
2022-10-23T04:12:19.532Z,6.50
2022-10-23T04:22:19.547Z,7.20
2022-10-23T04:32:19.542Z,6.20
2022-10-23T04:42:19.622Z,5.20
2022-10-23T04:52:19.632Z,6.30
2022-10-23T05:02:19.563Z,7.10
2022-10-23T05:12:19.572Z,5.50
2022-10-23T05:22:19.559Z,7.10
2022-10-23T05:42:19.582Z,7.20
2022-10-23T05:52:19.566Z,6.60
2022-10-23T06:02:19.834Z,6.30
2022-10-23T06:12:19.589Z,7.40
2022-10-23T06:32:19.599Z,7.20
2022-10-23T06:42:19.615Z,7.30
2022-10-23T06:52:34.874Z,6.40
2022-10-23T07:02:19.599Z,5.80
2022-10-23T07:12:19.603Z,6.50
2022-10-23T07:22:19.594Z,8.50
2022-10-23T07:32:19.619Z,8.30
2022-10-23T07:42:19.699Z,10.50
2022-10-23T07:52:19.728Z,9.40
2022-10-23T08:02:19.638Z,9.50
2022-10-23T08:12:19.635Z,8.60
2022-10-23T08:22:19.638Z,9.60
2022-10-23T08:32:19.666Z,9.30
2022-10-23T08:42:19.628Z,9.30
2022-10-23T08:52:19.652Z,8.10
2022-10-23T09:02:19.768Z,6.80
2022-10-23T09:12:19.663Z,7.60
2022-10-23T09:22:19.668Z,9.90
2022-10-23T09:32:19.672Z,8.10
2022-10-23T09:42:19.681Z,7.70
2022-10-23T09:52:19.747Z,8.00
2022-10-23T10:02:19.866Z,5.10
2022-10-23T10:12:19.673Z,5.30
2022-10-23T10:22:19.673Z,3.40
2022-10-23T10:32:19.699Z,3.90
2022-10-23T10:42:19.694Z,3.70
2022-10-23T10:52:20.028Z,2.90
2022-10-23T11:02:19.813Z,2.80
2022-10-23T11:12:19.712Z,3.10
2022-10-23T11:22:19.699Z,3.20
2022-10-23T11:32:19.799Z,3.30
2022-10-23T11:42:19.722Z,2.70
2022-10-23T11:52:19.749Z,3.00
2022-10-23T12:02:19.781Z,3.40
2022-10-23T12:12:19.722Z,3.40
2022-10-23T12:22:19.806Z,2.90
2022-10-23T12:32:19.761Z,3.00
2022-10-23T12:42:19.751Z,3.00
2022-10-23T12:52:19.731Z,2.90
2022-10-23T13:02:19.905Z,2.70
2022-10-23T13:22:19.804Z,3.30
2022-10-23T13:32:19.858Z,3.80
2022-10-23T13:42:19.848Z,3.70
2022-10-23T13:52:19.770Z,4.30
2022-10-23T14:02:19.937Z,4.00
2022-10-23T14:12:19.802Z,4.30
2022-10-23T14:22:19.785Z,4.60
2022-10-23T14:32:19.791Z,4.80
2022-10-23T14:42:19.798Z,5.10
2022-10-23T14:52:19.789Z,9.70
2022-10-23T15:02:19.890Z,5.30
2022-10-23T15:12:19.842Z,5.70
2022-10-23T15:22:19.879Z,6.60
2022-10-23T15:32:19.819Z,6.50
2022-10-23T15:42:19.824Z,7.20
2022-10-23T15:52:19.839Z,5.50
2022-10-23T16:02:20.123Z,7.20
2022-10-23T16:12:19.955Z,6.20
2022-10-23T16:22:19.937Z,5.80
2022-10-23T16:32:19.908Z,5.50
2022-10-23T16:42:19.996Z,7.50
2022-10-23T16:52:19.892Z,7.80
2022-10-23T17:02:20.093Z,11.30
2022-10-23T17:12:19.892Z,9.30
2022-10-23T17:22:19.913Z,7.80
2022-10-23T17:42:20.289Z,8.20
2022-10-23T17:52:19.908Z,8.70
2022-10-23T18:02:20.114Z,8.10
2022-10-23T18:12:20.023Z,17.10
2022-10-23T18:22:19.923Z,9.20
2022-10-23T18:32:19.928Z,8.20
2022-10-23T18:42:19.936Z,9.00
2022-10-23T18:52:19.917Z,10.80
2022-10-23T19:02:20.084Z,10.90
2022-10-23T19:12:19.968Z,8.90
2022-10-23T19:22:19.894Z,11.60
2022-10-23T19:32:19.894Z,8.40
2022-10-23T19:42:20.001Z,8.60
2022-10-23T19:52:19.933Z,7.30
2022-10-23T20:02:20.204Z,7.00
2022-10-23T20:12:20.035Z,6.50
2022-10-23T20:22:19.972Z,6.00
2022-10-23T20:32:19.944Z,5.80
2022-10-23T20:42:19.969Z,5.20
2022-10-23T20:52:20.024Z,7.10
2022-10-23T21:02:20.135Z,7.90
2022-10-23T21:12:20.028Z,8.10
2022-10-23T21:22:19.935Z,7.20
2022-10-23T21:32:20.312Z,6.80
2022-10-23T21:42:20.049Z,6.10
2022-10-23T21:52:20.033Z,5.00
2022-10-23T22:02:20.070Z,4.50
2022-10-23T22:12:19.968Z,5.20
2022-10-23T22:22:19.972Z,6.10
2022-10-23T22:42:19.976Z,7.20
2022-10-23T22:52:20.003Z,9.00
2022-10-23T23:02:19.973Z,9.30
2022-10-23T23:12:20.002Z,8.70
2022-10-23T23:22:20.053Z,7.60
2022-10-23T23:32:20.058Z,7.60
2022-10-23T23:42:19.997Z,8.20
2022-10-23T23:52:19.990Z,7.60
